Time;durP1;ratioP1;P1;durP2;ratioP2;P2;SDS_P1;SDS_P2;PMS_P1;PMS_P2;Temp;Humidity;BMP_temperature;BMP_pressure;BME280_temperature;BME280_humidity;BME280_pressure;Samples;Min_cycle;Max_cycle;Signal;HPM_P1;HPM_P2
2021/04/12 00:00:01;;;;;;;6.78;6.18;;;;;;;4.16;42.17;101356.44;4986619;28;98507;-70
2021/04/12 00:02:33;;;;;;;6.75;6.15;;;;;;;4.20;41.91;101361.06;4989517;28;98985;-70
2021/04/12 00:05:11;;;;;;;7.20;6.53;;;;;;;4.18;42.11;101365.34;4992069;28;96832;-69
2021/04/12 00:07:40;;;;;;;8.98;7.15;;;;;;;4.20;41.97;101363.69;4989870;28;96878;-70
2021/04/12 00:10:25;;;;;;;6.78;6.28;;;;;;;4.22;41.92;101362.03;4987821;28;98700;-70
2021/04/12 00:12:57;;;;;;;7.68;6.40;;;;;;;4.26;41.89;101362.22;4989041;28;97441;-70
2021/04/12 00:15:28;;;;;;;7.07;6.38;;;;;;;4.27;41.76;101369.28;4987882;28;97305;-70
2021/04/12 00:17:58;;;;;;;7.22;6.47;;;;;;;4.25;41.83;101366.56;5024729;27;96845;-70
2021/04/12 00:20:29;;;;;;;9.00;6.68;;;;;;;4.23;41.96;101374.38;4989689;28;98009;-70
2021/04/12 00:22:59;;;;;;;7.32;6.63;;;;;;;4.24;41.83;101378.81;4972307;28;99315;-70
2021/04/12 00:25:33;;;;;;;8.30;5.88;;;;;;;4.26;41.70;101367.47;4988851;28;97650;-70
2021/04/12 00:28:05;;;;;;;7.80;7.00;;;;;;;4.29;41.61;101375.53;4991223;28;96982;-70
2021/04/12 00:30:36;;;;;;;6.70;6.25;;;;;;;4.27;41.61;101385.09;4976466;28;99220;-69
2021/04/12 00:33:09;;;;;;;7.10;6.53;;;;;;;4.29;41.73;101386.09;4991686;28;96636;-70
2021/04/12 00:35:39;;;;;;;7.30;6.70;;;;;;;4.29;41.73;101400.16;5003894;28;97982;-70
2021/04/12 00:38:11;;;;;;;7.03;6.40;;;;;;;4.30;41.67;101411.63;5030481;27;96985;-70
2021/04/12 00:40:43;;;;;;;7.65;7.05;;;;;;;4.23;41.95;101408.63;4988920;28;98713;-69
2021/04/12 00:43:16;;;;;;;6.75;5.53;;;;;;;4.26;41.70;101417.53;4989558;28;97405;-71
2021/04/12 00:46:05;;;;;;;6.82;6.15;;;;;;;4.26;42.20;101409.63;4990323;28;96812;-70
2021/04/12 00:48:41;;;;;;;8.13;5.47;;;;;;;4.27;42.02;101417.63;4986560;28;96992;-70
2021/04/12 00:51:22;;;;;;;6.78;6.28;;;;;;;4.20;42.92;101426.91;4987966;28;100772;-70
2021/04/12 00:54:01;;;;;;;8.77;6.00;;;;;;;4.22;41.96;101425.25;4990000;28;97250;-70
2021/04/12 00:56:30;;;;;;;5.80;5.40;;;;;;;4.21;41.56;101422.53;4987542;28;97100;-70
2021/04/12 00:59:01;;;;;;;6.07;5.40;;;;;;;4.17;41.98;101420.56;4975409;28;97133;-70
2021/04/12 01:01:38;;;;;;;7.73;7.03;;;;;;;4.21;42.42;101428.72;4988703;28;97825;-70
2021/04/12 01:04:32;;;;;;;5.97;5.65;;;;;;;4.21;42.51;101431.34;4988240;28;97545;-70
2021/04/12 01:07:21;;;;;;;8.82;5.85;;;;;;;4.21;42.25;101423.44;4973848;28;96747;-70
2021/04/12 01:10:12;;;;;;;6.20;5.80;;;;;;;4.24;42.31;101428.00;4994775;28;96973;-70
2021/04/12 01:13:11;;;;;;;6.20;5.50;;;;;;;4.22;42.35;101433.16;4989870;28;97968;-70
2021/04/12 01:16:31;;;;;;;6.68;5.57;;;;;;;4.20;43.02;101439.16;4934370;28;98451;-70
2021/04/12 01:19:53;;;;;;;5.97;5.50;;;;;;;4.18;42.45;101427.63;4984489;28;98743;-71
2021/04/12 01:23:02;;;;;;;6.18;5.68;;;;;;;4.19;42.46;101442.59;4989304;28;97227;-72
2021/04/12 01:26:11;;;;;;;6.10;5.55;;;;;;;4.18;42.49;101439.09;4987685;28;97784;-72
2021/04/12 01:29:18;;;;;;;7.10;6.07;;;;;;;4.15;42.07;101443.28;4991796;28;98704;-71
2021/04/12 01:32:02;;;;;;;5.68;5.35;;;;;;;4.16;41.88;101448.63;4990486;28;96881;-71
2021/04/12 01:34:39;;;;;;;6.47;5.97;;;;;;;4.18;41.73;101448.72;5011847;28;97770;-72
2021/04/12 01:37:24;;;;;;;6.95;6.13;;;;;;;4.18;42.39;101453.97;4994571;28;97156;-72
2021/04/12 01:40:12;;;;;;;8.43;6.30;;;;;;;4.10;42.17;101457.88;4990765;28;99038;-72
2021/04/12 01:42:47;;;;;;;6.57;6.07;;;;;;;4.07;42.15;101445.47;4992267;28;96770;-71
2021/04/12 01:45:31;;;;;;;7.63;6.68;;;;;;;4.06;42.21;101459.44;5023276;27;97003;-71
2021/04/12 01:48:10;;;;;;;7.38;6.50;;;;;;;4.04;42.19;101461.06;4992630;28;98469;-72
2021/04/12 01:51:07;;;;;;;7.25;6.55;;;;;;;4.02;42.25;101460.06;4989383;28;97610;-72
2021/04/12 01:53:56;;;;;;;6.50;5.90;;;;;;;4.04;42.19;101461.06;4971303;28;97789;-72
2021/04/12 01:56:35;;;;;;;6.30;5.78;;;;;;;4.05;41.97;101464.63;4985678;28;96963;-71
2021/04/12 01:59:20;;;;;;;6.10;5.60;;;;;;;4.04;42.53;101450.53;4992284;28;99193;-72
2021/04/12 02:01:59;;;;;;;6.53;6.03;;;;;;;4.03;41.96;101455.72;4989417;28;100405;-71
2021/04/12 02:05:06;;;;;;;7.07;5.50;;;;;;;4.06;41.86;101461.19;4985682;28;96878;-72
2021/04/12 02:08:01;;;;;;;6.93;6.10;;;;;;;4.03;41.84;101455.72;4987721;28;97485;-72
2021/04/12 02:10:42;;;;;;;7.55;6.45;;;;;;;4.06;42.10;101459.44;4974115;28;100829;-71
2021/04/12 02:13:19;;;;;;;6.15;5.65;;;;;;;4.04;42.22;101468.09;4987603;28;97178;-72
2021/04/12 02:15:51;;;;;;;6.15;5.75;;;;;;;4.00;41.83;101461.72;4988916;28;97300;-72
2021/04/12 02:18:50;;;;;;;9.15;5.85;;;;;;;4.00;41.98;101472.25;4990257;28;97107;-72
2021/04/12 02:21:24;;;;;;;6.32;5.80;;;;;;;3.96;41.59;101479.88;4988075;28;96774;-72
2021/04/12 02:24:01;;;;;;;6.72;6.22;;;;;;;3.90;42.16;101477.78;4985628;28;99715;-72
2021/04/12 02:26:40;;;;;;;7.63;6.93;;;;;;;3.89;42.05;101478.63;4986862;28;97749;-71
2021/04/12 02:29:17;;;;;;;6.57;6.18;;;;;;;3.89;41.62;101477.72;4991134;28;96927;-72
2021/04/12 02:31:48;;;;;;;6.47;5.88;;;;;;;3.84;41.57;101474.78;4987327;28;98606;-71
2021/04/12 02:34:31;;;;;;;7.28;6.30;;;;;;;3.87;42.00;101488.16;4985532;28;100943;-72
2021/04/12 02:37:09;;;;;;;7.28;6.72;;;;;;;3.83;42.28;101496.69;4987740;28;97492;-71
2021/04/12 02:39:49;;;;;;;6.25;5.85;;;;;;;3.84;42.04;101490.59;4988217;28;97944;-71
2021/04/12 02:42:21;;;;;;;7.25;5.90;;;;;;;3.81;41.87;101497.41;4970380;28;99568;-72
2021/04/12 02:45:02;;;;;;;6.97;6.05;;;;;;;3.85;42.02;101502.94;4988373;28;98259;-73
2021/04/12 02:47:38;;;;;;;6.05;5.65;;;;;;;3.85;41.74;101500.31;4991362;28;97213;-72
2021/04/12 02:50:19;;;;;;;7.53;6.05;;;;;;;3.89;42.06;101496.13;4990830;28;97149;-72
2021/04/12 02:52:58;;;;;;;6.88;6.38;;;;;;;3.92;41.46;101494.59;4976031;28;97021;-72
2021/04/12 02:55:33;;;;;;;6.85;6.15;;;;;;;3.84;41.52;101502.88;4986577;28;99513;-72
2021/04/12 02:58:29;;;;;;;6.47;5.95;;;;;;;3.83;41.99;101509.84;4987370;28;97775;-71
2021/04/12 03:01:06;;;;;;;6.90;6.22;;;;;;;3.82;42.22;101499.22;4996540;28;98119;-72
2021/04/12 03:03:41;;;;;;;7.68;6.07;;;;;;;3.82;41.97;101497.50;4994439;28;99004;-71
2021/04/12 03:06:22;;;;;;;6.63;6.13;;;;;;;3.81;42.08;101495.69;4988056;28;97520;-72
2021/04/12 03:09:04;;;;;;;7.55;6.38;;;;;;;3.81;41.93;101498.31;4988317;28;97397;-72
2021/04/12 03:12:09;;;;;;;6.45;5.95;;;;;;;3.75;41.96;101500.56;4984860;28;97407;-71
2021/04/12 03:15:07;;;;;;;8.00;5.95;;;;;;;3.79;41.92;101501.66;4961190;28;99318;-71
2021/04/12 03:18:03;;;;;;;7.20;6.57;;;;;;;3.74;41.63;101505.75;4994713;28;99431;-71
2021/04/12 03:20:45;;;;;;;6.75;6.18;;;;;;;3.72;41.63;101510.00;4956911;28;97432;-72
2021/04/12 03:23:40;;;;;;;6.93;6.25;;;;;;;3.73;41.94;101523.25;5010567;27;97130;-71
2021/04/12 03:26:29;;;;;;;6.05;5.60;;;;;;;3.74;41.54;101524.19;5017497;27;99445;-71
2021/04/12 03:29:06;;;;;;;7.10;6.50;;;;;;;3.71;41.62;101537.16;4991309;28;97939;-71
2021/04/12 03:31:49;;;;;;;8.05;6.25;;;;;;;3.71;41.62;101527.53;4993651;28;97940;-72
2021/04/12 03:34:20;;;;;;;8.02;7.05;;;;;;;3.69;41.80;101538.78;4993130;28;97030;-72
2021/04/12 03:36:57;;;;;;;7.35;6.43;;;;;;;3.70;41.65;101525.72;4978455;28;100439;-73
2021/04/12 03:39:27;;;;;;;6.40;5.95;;;;;;;3.70;41.26;101536.25;4992512;28;97578;-71
2021/04/12 03:42:09;;;;;;;7.32;6.63;;;;;;;3.65;41.70;101540.31;4996498;28;97246;-71
2021/04/12 03:45:06;;;;;;;8.57;6.97;;;;;;;3.65;42.24;101542.97;5031395;27;96944;-71
2021/04/12 03:47:44;;;;;;;8.52;5.95;;;;;;;3.66;42.07;101543.88;4994302;28;98836;-71
2021/04/12 03:50:20;;;;;;;6.88;6.28;;;;;;;3.66;41.07;101550.03;4997203;28;100652;-72
2021/04/12 03:52:59;;;;;;;6.72;6.22;;;;;;;3.62;41.80;101561.16;4993021;28;97308;-72
2021/04/12 03:55:41;;;;;;;7.22;6.63;;;;;;;3.63;42.03;101570.88;4992111;28;96841;-71
2021/04/12 03:58:40;;;;;;;7.75;5.85;;;;;;;3.62;41.73;101570.78;5026212;27;97739;-73
2021/04/12 04:01:17;;;;;;;7.93;6.78;;;;;;;3.63;42.02;101577.84;5024806;27;99269;-73
2021/04/12 04:04:04;;;;;;;7.55;6.20;;;;;;;3.65;41.88;101574.53;4996799;28;96850;-74
2021/04/12 04:06:55;;;;;;;7.90;7.07;;;;;;;3.71;41.71;101579.28;4995535;28;97030;-73
2021/04/12 04:09:47;;;;;;;6.70;6.22;;;;;;;3.71;41.84;101577.56;4992322;28;99034;-74
2021/04/12 04:12:32;;;;;;;5.97;5.47;;;;;;;3.69;41.27;101589.72;4977501;28;99410;-73
2021/04/12 04:15:23;;;;;;;6.25;5.78;;;;;;;3.59;42.23;101589.91;4973101;28;97617;-74
2021/04/12 04:18:12;;;;;;;6.78;6.18;;;;;;;3.61;41.75;101604.06;4970156;28;97224;-73
2021/04/12 04:20:53;;;;;;;6.55;5.72;;;;;;;3.56;42.38;101600.25;4986881;28;100589;-73
2021/04/12 04:23:41;;;;;;;7.07;6.03;;;;;;;3.57;41.57;101614.34;5003325;27;99922;-73
2021/04/12 04:26:40;;;;;;;6.32;5.80;;;;;;;3.51;42.18;101620.13;4993116;28;97330;-73
2021/04/12 04:29:42;;;;;;;8.40;6.57;;;;;;;3.49;41.70;101618.19;4975450;28;97660;-73
2021/04/12 04:32:38;;;;;;;6.53;5.97;;;;;;;3.51;41.68;101611.31;4969179;28;99068;-73
2021/04/12 04:35:29;;;;;;;7.50;6.75;;;;;;;3.55;41.60;101608.06;4974703;28;98471;-73
2021/04/12 04:38:35;;;;;;;7.35;6.28;;;;;;;3.53;42.03;101610.56;4997013;28;96955;-73
2021/04/12 04:41:13;;;;;;;6.60;6.00;;;;;;;3.55;41.82;101624.72;4995670;28;98209;-73
2021/04/12 04:44:02;;;;;;;6.22;5.72;;;;;;;3.52;41.45;101627.19;4998211;28;96833;-72
2021/04/12 04:46:41;;;;;;;6.90;6.40;;;;;;;3.57;41.75;101628.38;5022226;27;97931;-73
2021/04/12 04:49:28;;;;;;;6.00;5.55;;;;;;;3.61;41.37;101614.59;4992687;28;97136;-73
2021/04/12 04:52:06;;;;;;;6.25;5.75;;;;;;;3.66;41.31;101622.84;5009148;28;97337;-73
2021/04/12 04:54:51;;;;;;;6.43;5.93;;;;;;;3.66;41.05;101628.97;4997461;28;99620;-72
2021/04/12 04:57:28;;;;;;;6.13;5.63;;;;;;;3.59;41.08;101636.34;4995052;28;98793;-72
2021/04/12 05:00:05;;;;;;;6.13;5.72;;;;;;;3.54;41.33;101637.81;4994895;28;96831;-74
2021/04/12 05:03:04;;;;;;;5.53;5.18;;;;;;;3.49;41.48;101641.88;4998439;28;97179;-73
2021/04/12 05:05:36;;;;;;;6.13;5.65;;;;;;;3.53;41.14;101643.88;4992033;28;98669;-72
2021/04/12 05:08:20;;;;;;;6.53;5.93;;;;;;;3.49;41.24;101640.16;4995273;28;99870;-73
2021/04/12 05:11:10;;;;;;;5.97;5.57;;;;;;;3.49;41.38;101629.63;5002257;28;97751;-73
2021/04/12 05:14:13;;;;;;;6.18;5.57;;;;;;;3.53;41.26;101641.25;4979703;28;97046;-74
2021/04/12 05:16:50;;;;;;;8.73;5.88;;;;;;;3.51;40.78;101643.81;4992582;28;97734;-73
2021/04/12 05:19:49;;;;;;;5.68;5.30;;;;;;;3.51;41.34;101656.97;4991375;28;97401;-74
2021/04/12 05:22:34;;;;;;;5.95;5.35;;;;;;;3.55;41.13;101664.19;4959003;28;96966;-72
2021/04/12 05:25:13;;;;;;;6.20;5.53;;;;;;;3.54;40.98;101675.56;5009978;27;96983;-73
2021/04/12 05:27:55;;;;;;;9.48;7.45;;;;;;;3.56;41.33;101676.56;4991981;28;97623;-73
2021/04/12 05:30:38;;;;;;;6.55;5.95;;;;;;;3.59;40.74;101695.16;4995378;28;97748;-73
2021/04/12 05:33:11;;;;;;;5.55;5.15;;;;;;;3.58;40.63;101702.97;5005632;28;97566;-73
2021/04/12 05:35:45;;;;;;;6.40;5.88;;;;;;;3.56;40.91;101705.50;5024935;27;98457;-73
2021/04/12 05:38:28;;;;;;;5.70;5.20;;;;;;;3.66;41.24;101710.56;4990355;28;99660;-73
2021/04/12 05:41:12;;;;;;;5.40;5.10;;;;;;;3.71;40.73;101717.06;4992418;28;98534;-73
2021/04/12 05:43:54;;;;;;;5.95;5.47;;;;;;;3.72;40.71;101718.88;4984495;28;97657;-74
2021/04/12 05:46:47;;;;;;;7.18;5.50;;;;;;;3.72;41.17;101728.47;4993879;28;97514;-73
2021/04/12 05:49:46;;;;;;;7.82;6.88;;;;;;;3.71;40.98;101732.84;5018798;27;97884;-73
2021/04/12 05:52:26;;;;;;;6.05;5.65;;;;;;;3.73;41.16;101731.19;4991356;28;96929;-73
2021/04/12 05:55:32;;;;;;;6.45;5.82;;;;;;;3.72;40.84;101742.56;4990187;28;97845;-74
2021/04/12 05:58:23;;;;;;;5.32;4.80;;;;;;;3.74;40.90;101740.94;4971929;28;97198;-73
2021/04/12 06:01:06;;;;;;;5.53;5.03;;;;;;;3.76;41.03;101759.44;4992696;28;99157;-73
2021/04/12 06:03:43;;;;;;;6.10;5.60;;;;;;;3.75;40.67;101761.16;4989080;28;99425;-73
2021/04/12 06:06:49;;;;;;;8.93;5.10;;;;;;;3.79;40.97;101765.81;4978802;28;96833;-74
2021/04/12 06:09:35;;;;;;;5.72;5.22;;;;;;;3.77;40.73;101772.69;4992692;28;97750;-73
2021/04/12 06:12:27;;;;;;;5.53;5.22;;;;;;;3.81;41.08;101777.34;4989521;28;100585;-72
2021/04/12 06:15:15;;;;;;;6.30;5.65;;;;;;;3.93;40.66;101775.50;4991438;28;97599;-73
2021/04/12 06:17:48;;;;;;;5.07;4.78;;;;;;;3.93;40.39;101793.03;4990048;28;96845;-73
2021/04/12 06:21:01;;;;;;;5.30;4.90;;;;;;;3.96;40.88;101794.16;5006601;28;97255;-73
2021/04/12 06:23:54;;;;;;;5.05;4.65;;;;;;;3.95;40.40;101796.69;4995536;28;97874;-73
2021/04/12 06:26:43;;;;;;;5.25;4.85;;;;;;;3.96;40.49;101801.13;4998460;28;97124;-74
2021/04/12 06:29:34;;;;;;;5.60;5.15;;;;;;;3.95;40.62;101787.03;5008696;28;96865;-73
2021/04/12 06:32:29;;;;;;;5.60;5.10;;;;;;;3.91;40.71;101795.59;4993794;28;96899;-71
2021/04/12 06:35:33;;;;;;;5.35;4.80;;;;;;;3.88;40.79;101790.09;4994233;28;98096;-75
2021/04/12 06:38:26;;;;;;;5.38;4.80;;;;;;;3.87;40.80;101798.81;4997613;28;97576;-73
2021/04/12 06:41:19;;;;;;;5.30;4.90;;;;;;;3.90;40.69;101799.00;4984971;28;97514;-74
2021/04/12 06:44:07;;;;;;;5.43;4.78;;;;;;;3.98;40.37;101797.78;4988347;28;97337;-74
2021/04/12 06:47:17;;;;;;;5.75;5.22;;;;;;;4.09;40.72;101787.94;5023619;27;100414;-73
2021/04/12 06:50:15;;;;;;;5.43;5.00;;;;;;;4.20;40.26;101793.06;4987877;28;98712;-74
2021/04/12 06:53:31;;;;;;;5.25;4.85;;;;;;;4.18;40.57;101801.66;4973951;28;97475;-75
2021/04/12 06:56:36;;;;;;;5.53;5.13;;;;;;;4.20;40.01;101810.59;5003979;28;97212;-73
2021/04/12 06:59:18;;;;;;;4.60;4.40;;;;;;;4.23;40.23;101816.94;4988545;28;97687;-73
2021/04/12 07:02:11;;;;;;;4.72;4.45;;;;;;;4.33;39.99;101822.81;4986909;28;98150;-73
2021/04/12 07:05:08;;;;;;;5.22;4.68;;;;;;;4.38;40.21;101821.34;4970425;28;96825;-73
2021/04/12 07:08:10;;;;;;;5.53;4.97;;;;;;;4.44;40.16;101824.38;4988613;28;97322;-74
2021/04/12 07:11:05;;;;;;;5.15;4.82;;;;;;;4.47;39.86;101833.38;4990607;28;98704;-74
2021/04/12 07:13:53;;;;;;;5.65;4.80;;;;;;;4.44;40.24;101840.19;4987836;28;97608;-73
2021/04/12 07:16:34;;;;;;;5.22;4.88;;;;;;;4.39;39.95;101844.28;4987630;28;97058;-73
2021/04/12 07:19:41;;;;;;;4.68;4.30;;;;;;;4.45;40.19;101844.63;5001520;28;97422;-76
2021/04/12 07:22:41;;;;;;;5.10;4.60;;;;;;;4.50;40.21;101853.75;5007124;28;96901;-72
2021/04/12 07:25:35;;;;;;;5.78;5.38;;;;;;;4.49;39.96;101860.75;4985766;28;98808;-73
2021/04/12 07:28:45;;;;;;;6.15;4.70;;;;;;;4.48;39.96;101858.03;5006497;28;97909;-73
2021/04/12 07:31:45;;;;;;;5.03;4.75;;;;;;;4.55;40.05;101862.84;4968289;28;96897;-72
2021/04/12 07:34:31;;;;;;;6.60;5.05;;;;;;;4.59;39.88;101857.84;4988133;28;97604;-73
2021/04/12 07:37:20;;;;;;;4.82;4.53;;;;;;;4.63;39.83;101874.78;4984396;28;99365;-74
2021/04/12 07:40:12;;;;;;;7.05;4.82;;;;;;;4.64;39.61;101874.91;4999702;28;97900;-74
2021/04/12 07:43:32;;;;;;;5.80;4.63;;;;;;;4.65;39.59;101879.34;4982472;28;97133;-74
2021/04/12 07:46:36;;;;;;;5.97;4.78;;;;;;;4.56;39.81;101880.47;5004504;27;101880;-73
2021/04/12 07:50:04;;;;;;;5.93;5.10;;;;;;;4.58;39.92;101879.78;4995147;28;97987;-74
2021/04/12 07:53:06;;;;;;;4.47;4.07;;;;;;;4.59;39.84;101880.69;4935935;28;96893;-73
2021/04/12 07:56:06;;;;;;;4.85;4.55;;;;;;;4.59;39.74;101880.69;4993662;28;97333;-74
2021/04/12 07:59:13;;;;;;;4.95;4.57;;;;;;;4.64;39.68;101882.81;4995769;28;97024;-73
2021/04/12 08:02:14;;;;;;;8.52;4.53;;;;;;;4.63;39.27;101887.94;5013087;27;98131;-74
2021/04/12 08:05:16;;;;;;;5.90;4.70;;;;;;;4.68;39.28;101884.78;4989398;28;97076;-74
2021/04/12 08:08:17;;;;;;;6.30;5.70;;;;;;;4.74;38.93;101887.81;5024329;27;97464;-72
2021/04/12 08:11:25;;;;;;;5.32;4.97;;;;;;;4.77;39.19;101893.28;4971939;28;97102;-73
2021/04/12 08:14:38;;;;;;;5.28;4.70;;;;;;;4.84;39.23;101877.03;4980040;28;97869;-73
2021/04/12 08:17:48;;;;;;;5.97;4.93;;;;;;;4.91;39.03;101892.41;5000772;28;100510;-72
2021/04/12 08:20:51;;;;;;;9.32;4.38;;;;;;;5.03;38.77;101887.91;5027647;27;97850;-71
2021/04/12 08:23:53;;;;;;;4.70;4.25;;;;;;;5.04;38.61;101900.31;4990548;28;97120;-71
2021/04/12 08:27:14;;;;;;;4.57;4.18;;;;;;;5.02;38.86;101890.44;4988817;28;100538;-73
2021/04/12 08:30:13;;;;;;;4.38;4.13;;;;;;;4.93;38.62;101888.16;4987736;28;97517;-73
2021/04/12 08:33:15;;;;;;;5.60;4.03;;;;;;;4.92;38.26;101891.59;5003472;28;97708;-73
2021/04/12 08:36:13;;;;;;;6.47;4.50;;;;;;;4.95;38.64;101904.06;5005008;28;97075;-73
2021/04/12 08:39:12;;;;;;;8.77;4.40;;;;;;;4.94;38.40;101908.41;4991009;28;98585;-73
2021/04/12 08:41:52;;;;;;;4.80;4.50;;;;;;;4.90;38.26;101910.78;4992359;28;97716;-73
2021/04/12 08:44:49;;;;;;;4.97;4.57;;;;;;;4.84;37.86;101916.59;5007632;27;96932;-72
2021/04/12 08:47:55;;;;;;;5.53;4.40;;;;;;;4.88;38.13;101923.84;4975220;28;100141;-72
2021/04/12 08:50:38;;;;;;;5.30;4.43;;;;;;;5.02;38.39;101922.09;5002289;28;99398;-73
2021/04/12 08:53:47;;;;;;;6.25;4.50;;;;;;;5.03;38.12;101929.19;4976317;28;97409;-73
2021/04/12 08:56:36;;;;;;;5.25;4.28;;;;;;;5.08;38.05;101930.41;5001147;28;97073;-73
2021/04/12 08:59:21;;;;;;;4.65;4.35;;;;;;;5.21;37.98;101927.69;4992006;28;97669;-72
2021/04/12 09:02:09;;;;;;;6.40;3.78;;;;;;;5.27;37.76;101930.69;4986641;28;100672;-73
2021/04/12 09:05:15;;;;;;;5.88;4.28;;;;;;;5.30;37.80;101937.91;4987763;28;97212;-70
2021/04/12 09:07:56;;;;;;;10.02;4.90;;;;;;;5.34;37.67;101942.56;4967506;28;97153;-72
2021/04/12 09:10:45;;;;;;;5.35;4.15;;;;;;;5.37;37.64;101948.00;4990827;28;97525;-72
2021/04/12 09:13:50;;;;;;;7.75;4.30;;;;;;;5.46;37.41;101948.56;5026058;27;99205;-71
2021/04/12 09:16:19;;;;;;;3.75;3.53;;;;;;;5.49;37.52;101954.94;4985817;28;97723;-73
2021/04/12 09:19:03;;;;;;;4.10;3.80;;;;;;;5.56;37.31;101950.91;4991639;28;97105;-73
2021/04/12 09:21:47;;;;;;;4.80;4.38;;;;;;;5.58;37.39;101950.22;4990659;28;97296;-72
2021/04/12 09:24:43;;;;;;;4.30;3.90;;;;;;;5.53;36.16;101958.66;4991438;28;101126;-72
2021/04/12 09:27:43;;;;;;;7.32;4.40;;;;;;;5.52;36.91;101952.47;4989230;28;97731;-73
2021/04/12 09:30:34;;;;;;;4.28;3.97;;;;;;;5.52;36.75;101962.16;5001555;28;96885;-73
2021/04/12 09:33:52;;;;;;;4.75;4.35;;;;;;;5.52;36.17;101965.66;4982624;28;98738;-72
2021/04/12 09:36:51;;;;;;;5.07;3.65;;;;;;;5.56;36.76;101978.25;4998158;28;99291;-73
2021/04/12 09:39:41;;;;;;;4.38;3.92;;;;;;;5.55;36.85;101981.72;4987102;28;98219;-72
2021/04/12 09:42:34;;;;;;;4.20;3.88;;;;;;;5.46;36.22;101975.88;4989115;28;97853;-73
2021/04/12 09:45:27;;;;;;;3.90;3.67;;;;;;;5.62;36.74;101981.25;4991477;28;97664;-73
2021/04/12 09:48:29;;;;;;;4.13;3.78;;;;;;;5.75;36.68;101972.34;4992445;28;98670;-72
2021/04/12 09:51:41;;;;;;;9.10;3.80;;;;;;;5.77;36.77;101976.91;5000140;28;98228;-72
2021/04/12 09:54:28;;;;;;;5.20;4.35;;;;;;;5.81;36.47;101983.28;4991960;28;96879;-73
2021/04/12 09:57:48;;;;;;;4.13;3.70;;;;;;;5.72;35.22;101980.97;5024474;27;100553;-73
2021/04/12 10:00:28;;;;;;;3.92;3.63;;;;;;;5.88;36.44;101988.09;4989560;28;98933;-73
2021/04/12 10:03:19;;;;;;;4.05;3.85;;;;;;;5.89;34.89;101993.47;5003054;28;96996;-73
2021/04/12 10:06:17;;;;;;;4.82;4.32;;;;;;;5.88;35.76;101998.66;4992840;28;96800;-73
2021/04/12 10:08:46;;;;;;;3.70;3.50;;;;;;;5.90;36.65;102013.75;4988206;28;99358;-73
2021/04/12 10:11:17;;;;;;;8.60;5.32;;;;;;;5.95;36.62;102007.03;4990203;28;99295;-73
2021/04/12 10:13:47;;;;;;;5.80;4.07;;;;;;;5.99;36.42;102003.78;4990100;28;97971;-73
2021/04/12 10:16:20;;;;;;;5.55;3.63;;;;;;;6.06;36.15;102015.59;4989883;28;97051;-72
2021/04/12 10:18:56;;;;;;;4.22;3.83;;;;;;;6.10;35.75;102012.31;4988254;28;98600;-72
2021/04/12 10:21:30;;;;;;;5.00;3.83;;;;;;;6.10;35.99;102007.91;4988388;28;97778;-73
2021/04/12 10:24:04;;;;;;;4.82;4.38;;;;;;;6.09;35.55;102006.13;4991668;28;97462;-74
2021/04/12 10:26:37;;;;;;;3.85;3.55;;;;;;;6.17;36.06;102009.22;4982669;28;98340;-74
2021/04/12 10:29:09;;;;;;;6.15;3.67;;;;;;;6.30;36.00;102017.06;4989152;28;97772;-73
2021/04/12 10:31:38;;;;;;;5.88;3.65;;;;;;;6.38;35.84;102006.94;4990791;28;100220;-72
2021/04/12 10:34:11;;;;;;;4.70;4.32;;;;;;;6.35;35.60;102004.09;4990941;28;97087;-73
2021/04/12 10:36:49;;;;;;;4.47;3.85;;;;;;;6.45;35.32;102001.19;4984660;28;97985;-73
2021/04/12 10:39:26;;;;;;;4.60;4.20;;;;;;;6.58;35.13;102006.34;4988659;28;97571;-73
2021/04/12 10:41:58;;;;;;;4.38;3.97;;;;;;;6.60;34.99;102002.03;4989359;28;97623;-73
2021/04/12 10:44:31;;;;;;;4.55;4.18;;;;;;;6.75;35.19;102003.81;4973950;28;97183;-73
2021/04/12 10:47:03;;;;;;;4.82;4.28;;;;;;;6.78;35.08;102003.09;4988572;28;98360;-74
2021/04/12 10:49:47;;;;;;;3.75;3.40;;;;;;;6.86;34.56;101996.47;4985179;28;96838;-72
2021/04/12 10:52:19;;;;;;;3.63;3.40;;;;;;;6.88;34.81;102005.41;5000817;28;97688;-73
2021/04/12 10:55:01;;;;;;;5.50;3.85;;;;;;;6.99;34.54;101997.25;4966346;28;103235;-72
2021/04/12 10:57:36;;;;;;;3.85;3.65;;;;;;;7.03;34.44;101991.28;4972109;28;97078;-73
2021/04/12 11:00:12;;;;;;;4.07;3.72;;;;;;;7.10;33.78;102003.09;4990208;28;97758;-74
2021/04/12 11:02:52;;;;;;;5.25;4.55;;;;;;;7.17;33.86;102000.88;5004009;27;99357;-75
2021/04/12 11:05:22;;;;;;;5.00;3.90;;;;;;;7.21;34.29;101980.78;5024071;27;97353;-75
2021/04/12 11:07:53;;;;;;;5.43;3.28;;;;;;;7.24;33.99;101983.56;4993936;28;97605;-75
2021/04/12 11:10:26;;;;;;;3.60;3.40;;;;;;;7.21;34.05;101999.31;4987005;28;98675;-74
2021/04/12 11:12:59;;;;;;;3.40;3.10;;;;;;;7.26;34.23;101989.88;4992224;28;97752;-73
2021/04/12 11:15:42;;;;;;;3.63;3.53;;;;;;;7.35;33.52;101973.53;5002859;28;97783;-73
2021/04/12 11:18:21;;;;;;;2.97;2.78;;;;;;;7.41;33.86;101969.53;4990036;28;97663;-74
2021/04/12 11:20:55;;;;;;;3.35;3.00;;;;;;;7.48;31.75;101976.97;4988812;28;97647;-74
2021/04/12 11:23:26;;;;;;;4.65;3.60;;;;;;;7.57;33.39;101968.59;4990987;28;99246;-73
2021/04/12 11:25:58;;;;;;;3.50;3.30;;;;;;;7.62;32.99;101965.34;4992186;28;96821;-72
2021/04/12 11:28:35;;;;;;;3.65;3.15;;;;;;;7.66;32.84;101975.28;4990682;28;97041;-73
2021/04/12 11:31:16;;;;;;;3.13;2.97;;;;;;;7.66;31.60;101983.22;4993108;28;98134;-74
2021/04/12 11:33:50;;;;;;;3.38;3.08;;;;;;;7.71;31.44;101991.44;4990590;28;99664;-73
2021/04/12 11:36:25;;;;;;;3.63;2.95;;;;;;;7.80;33.25;101986.59;4985546;28;97295;-75
2021/04/12 11:39:03;;;;;;;3.63;3.30;;;;;;;7.78;32.51;101989.16;4989831;28;97258;-74
2021/04/12 11:41:33;;;;;;;3.15;2.95;;;;;;;7.89;33.13;101987.97;4997345;28;98799;-75
2021/04/12 11:44:03;;;;;;;3.15;2.72;;;;;;;7.98;33.11;101993.72;4996619;28;100480;-74
2021/04/12 11:46:45;;;;;;;3.25;2.75;;;;;;;8.00;32.21;102004.44;4991615;28;97180;-75
2021/04/12 11:49:19;;;;;;;3.28;3.00;;;;;;;8.02;31.99;102008.97;4991403;28;97661;-75
2021/04/12 11:51:55;;;;;;;3.08;2.80;;;;;;;7.98;32.73;101992.84;4991408;28;100117;-74
2021/04/12 11:54:32;;;;;;;4.10;3.85;;;;;;;7.88;30.98;102006.44;4995318;28;99652;-72
2021/04/12 11:57:02;;;;;;;4.10;3.00;;;;;;;7.84;32.41;102015.06;5003573;28;97272;-74
2021/04/12 11:59:42;;;;;;;3.00;2.90;;;;;;;7.67;32.36;102016.84;4994675;28;97250;-74
2021/04/12 12:02:18;;;;;;;2.90;2.72;;;;;;;7.60;32.57;101997.91;4991194;28;98025;-74
2021/04/12 12:04:50;;;;;;;3.22;3.03;;;;;;;7.59;32.70;102009.31;4990605;28;97612;-73
2021/04/12 12:07:35;;;;;;;3.05;2.78;;;;;;;7.50;33.08;102009.75;5004315;28;96815;-72
2021/04/12 12:10:18;;;;;;;3.53;3.20;;;;;;;7.56;31.17;102018.03;4991095;28;97609;-72
2021/04/12 12:12:54;;;;;;;3.03;2.80;;;;;;;7.47;31.86;102011.31;4989617;28;97635;-72
2021/04/12 12:15:27;;;;;;;2.83;2.72;;;;;;;7.51;32.88;102008.91;4989474;27;98907;-75
2021/04/12 12:18:03;;;;;;;2.75;2.55;;;;;;;7.62;32.78;102012.16;4988463;28;97062;-75
2021/04/12 12:20:45;;;;;;;3.70;2.80;;;;;;;7.65;30.25;102013.22;4988810;28;97969;-75
2021/04/12 12:23:23;;;;;;;2.60;2.50;;;;;;;7.69;31.78;102017.81;4990719;28;99015;-74
2021/04/12 12:25:51;;;;;;;4.13;3.05;;;;;;;7.82;32.66;102017.63;4989761;28;99563;-74
2021/04/12 12:28:24;;;;;;;10.38;3.08;;;;;;;7.78;31.77;102025.34;4988879;28;97279;-73
2021/04/12 12:30:56;;;;;;;3.00;2.80;;;;;;;7.86;32.53;102018.69;4988584;27;97855;-72
2021/04/12 12:33:29;;;;;;;2.92;2.83;;;;;;;7.91;32.08;102027.81;4987876;28;99514;-71
2021/04/12 12:36:06;;;;;;;3.83;3.55;;;;;;;7.98;32.02;102011.41;4989752;28;98863;-72
2021/04/12 12:38:48;;;;;;;4.30;2.97;;;;;;;8.11;31.32;102014.72;4986218;28;97468;-72
2021/04/12 12:41:17;;;;;;;3.15;3.05;;;;;;;8.33;32.03;102005.22;4988218;28;99310;-73
2021/04/12 12:43:45;;;;;;;3.50;3.22;;;;;;;8.52;31.77;102013.25;4988625;28;99692;-72
2021/04/12 12:46:14;;;;;;;2.92;2.83;;;;;;;8.76;32.03;102006.50;4990295;28;99534;-73
2021/04/12 12:48:48;;;;;;;3.38;3.08;;;;;;;9.12;31.29;102005.56;4988007;28;97239;-73
2021/04/12 12:51:17;;;;;;;4.53;3.35;;;;;;;10.28;30.66;101988.59;4990566;28;99600;-72
2021/04/12 12:53:47;;;;;;;2.85;2.72;;;;;;;12.33;28.43;101991.16;4988915;28;100313;-73
2021/04/12 12:56:20;;;;;;;2.80;2.67;;;;;;;13.52;25.04;101989.53;4987939;28;100285;-72